Columbia, SC (29201)

10:43 PM EDT on July 27, 2015 (GMT -0400)
Near Downtown | | Change Station
CLOSE
Current Station
Personal Weather Station
Location: Columbia, SC
Elevation: 260 ft
Nearby Weather Stations

Elev 260 ft 34.02 °N, 81.07 °W | Updated 10 minutes ago

Partly Cloudy
Partly Cloudy
84.9 °F
Feels Like 92 °F
N
0.0
Wind Variable Wind from ESE
Gusts 4.0 mph

Today
High -- | Low -- °F
--% Chance of Precip.
Yesterday
High -- | Low -- °F
Precip. -- in
6:31 AM 8:29 PM
Waxing Gibbous, 86% visible
Pressure 29.96 in
Visibility 10.0 miles
Clouds Few 7500 ft
Heat Index 92 °F
Dew Point 74 °F
Humidity 70%
Rainfall -999.00 in
Snow Depth Not available.
UV 0 out of 12
Pollen 3.90 out of 12
Air Quality Not available.
Flu Activity Not available.
METAR KCUB 280153Z AUTO VRB03KT 10SM FEW075 30/22 A2996 RMK AO2 SLP144 T03000217 TSNO

More Conditions Fewer Conditions

Pressure 29.96 in
Visibility 10.0 miles
Clouds Few 7500 ft
Heat Index 92 °F
Dew Point 74 °F
Humidity 70%
Rainfall -999.00 in
Snow Depth Not available.
UV 0 out of 12
Pollen 3.90 out of 12
Air Quality Not available.
Flu Activity Not available.
METAR KCUB 280153Z AUTO VRB03KT 10SM FEW075 30/22 A2996 RMK AO2 SLP144 T03000217 TSNO

More Conditions Fewer Conditions

10-Day Weather Forecast

×

Almanac

Astronomy

Jul. 27, 2015 Rise Set
Actual Time
Civil Twilight
Nautical Twilight
Astronomical Twilight
Moon
Length of Visible Light
Length of Day
Tomorrow will be .
, % of the Moon is Illuminated

Today's Extremes

State Highs State Lows

Community

WunderPhotos

Upload Photos

1,841,777 photos uploaded!

WunderBlogs® & News

Nearby

Air Quality

  Air Quality AQ Index Pollutant
Not available.

Snow Depth

Station Depth Elevation

Earthquake Activity

City Distance Mag. Time & Date
Minimum magnitude displayed is 2.5.

Coastal Water Temperatures

Place Temperature

Stations

Nearby Weather Stations

Station Location Temp. Windchill Dew Point Humidity Wind Precip. Elev Updated Type